Time;durP1;ratioP1;P1;durP2;ratioP2;P2;SDS_P1;SDS_P2;PMS_P1;PMS_P2;Temp;Humidity;BMP_temperature;BMP_pressure;BME280_temperature;BME280_humidity;BME280_pressure;Samples;Min_cycle;Max_cycle;Signal;HPM_P1;HPM_P2
2022/01/22 00:02:23;;;;;;;3.10;1.77;;;;;;;;;;5030832;28;20068;-69
2022/01/22 00:04:49;;;;;;;2.55;1.48;;;;;;;;;;5031119;28;20029;-69
2022/01/22 00:07:15;;;;;;;2.88;1.50;;;;;;;;;;5032764;28;20029;-69
2022/01/22 00:09:48;;;;;;;3.70;1.60;;;;;;;;;;5032154;28;20029;-70
2022/01/22 00:12:27;;;;;;;2.03;1.50;;;;;;;;;;5032056;28;20400;-70
2022/01/22 00:14:53;;;;;;;2.95;1.40;;;;;;;;;;5030589;28;20034;-70
2022/01/22 00:17:19;;;;;;;3.17;1.52;;;;;;;;;;5032468;28;20099;-69
2022/01/22 00:19:45;;;;;;;1.88;1.40;;;;;;;;;;5031945;28;20408;-69
2022/01/22 00:22:11;;;;;;;2.88;1.58;;;;;;;;;;5031617;28;20025;-69
2022/01/22 00:24:39;;;;;;;2.22;1.48;;;;;;;;;;5036125;28;20041;-70
2022/01/22 00:27:06;;;;;;;2.13;1.38;;;;;;;;;;5036112;28;20041;-70
2022/01/22 00:29:32;;;;;;;2.38;1.30;;;;;;;;;;5035940;28;20021;-70
2022/01/22 00:31:58;;;;;;;1.98;1.40;;;;;;;;;;5035285;28;20053;-70
2022/01/22 00:34:24;;;;;;;2.38;1.40;;;;;;;;;;5035938;28;20038;-70
2022/01/22 00:36:50;;;;;;;2.95;1.30;;;;;;;;;;5035661;28;20029;-70
2022/01/22 00:39:16;;;;;;;2.90;1.40;;;;;;;;;;5035668;28;20025;-70
2022/01/22 00:41:42;;;;;;;2.83;1.25;;;;;;;;;;5043756;28;20055;-69
2022/01/22 00:44:08;;;;;;;2.67;1.20;;;;;;;;;;5056366;28;20029;-69
2022/01/22 00:46:34;;;;;;;2.45;1.30;;;;;;;;;;5055048;28;20021;-69
2022/01/22 00:49:02;;;;;;;3.58;1.20;;;;;;;;;;5055317;28;20029;-69
2022/01/22 00:51:28;;;;;;;1.95;1.23;;;;;;;;;;5054569;28;20021;-69
2022/01/22 00:53:54;;;;;;;2.30;1.15;;;;;;;;;;5037645;28;20067;-70
2022/01/22 00:56:21;;;;;;;2.05;1.20;;;;;;;;;;5034297;28;20112;-70
2022/01/22 00:58:47;;;;;;;2.55;1.23;;;;;;;;;;5034984;28;20054;-70
2022/01/22 01:01:13;;;;;;;2.10;1.05;;;;;;;;;;5033705;28;20032;-70
2022/01/22 01:03:39;;;;;;;3.40;1.33;;;;;;;;;;5034542;28;20059;-70
2022/01/22 01:06:05;;;;;;;2.35;1.20;;;;;;;;;;5033785;28;20465;-70
2022/01/22 01:08:34;;;;;;;2.55;1.13;;;;;;;;;;5034882;28;20053;-70
2022/01/22 01:11:00;;;;;;;2.17;1.15;;;;;;;;;;5035062;28;20022;-69
2022/01/22 01:13:29;;;;;;;3.65;1.60;;;;;;;;;;5033156;28;20452;-70
2022/01/22 01:16:14;;;;;;;2.55;1.52;;;;;;;;;;5043062;28;20443;-70
2022/01/22 01:32:33;;;;;;;2.83;1.33;;;;;;;;;;5054010;28;20164;-70
2022/01/22 01:35:00;;;;;;;1.40;0.95;;;;;;;;;;5053450;28;20166;-69
2022/01/22 01:37:26;;;;;;;1.48;0.90;;;;;;;;;;5053385;28;20040;-69
2022/01/22 01:39:59;;;;;;;2.78;1.27;;;;;;;;;;5054496;28;20025;-69
2022/01/22 01:44:56;;;;;;;2.67;1.20;;;;;;;;;;5034172;28;20456;-70
2022/01/22 01:47:22;;;;;;;3.42;1.75;;;;;;;;;;5034025;28;20060;-70
2022/01/22 01:49:48;;;;;;;4.30;1.33;;;;;;;;;;5033046;28;20026;-70
2022/01/22 01:52:22;;;;;;;3.00;1.42;;;;;;;;;;5037219;28;20025;-70
2022/01/22 01:55:10;;;;;;;3.45;1.40;;;;;;;;;;5054190;28;20021;-70
2022/01/22 01:57:38;;;;;;;1.30;0.98;;;;;;;;;;5053663;28;20045;-70
2022/01/22 02:00:06;;;;;;;2.20;1.40;;;;;;;;;;5052665;28;20147;-69
2022/01/22 02:02:34;;;;;;;2.17;1.10;;;;;;;;;;5052462;28;20033;-69
2022/01/22 02:05:00;;;;;;;2.00;1.02;;;;;;;;;;5054014;28;20032;-70
2022/01/22 02:07:26;;;;;;;3.05;1.20;;;;;;;;;;5053723;28;20064;-70
2022/01/22 02:09:52;;;;;;;2.20;1.17;;;;;;;;;;5053756;28;20029;-69
2022/01/22 02:25:56;;;;;;;2.60;1.60;;;;;;;;;;5053080;28;20039;-70
2022/01/22 02:28:22;;;;;;;2.78;1.50;;;;;;;;;;5042668;28;20040;-70
2022/01/22 02:30:53;;;;;;;3.28;1.60;;;;;;;;;;5032944;28;20025;-70
2022/01/22 02:35:57;;;;;;;3.85;1.50;;;;;;;;;;5033973;28;20497;-70
2022/01/22 02:38:33;;;;;;;4.03;1.48;;;;;;;;;;5053273;28;20024;-70
2022/01/22 02:40:59;;;;;;;3.03;1.75;;;;;;;;;;5050818;28;20100;-70
2022/01/22 02:43:25;;;;;;;2.83;2.00;;;;;;;;;;5031229;28;20056;-70
2022/01/22 02:45:53;;;;;;;3.50;1.88;;;;;;;;;;5031434;28;20511;-70
2022/01/22 02:48:19;;;;;;;3.75;2.10;;;;;;;;;;5033072;28;20060;-70
2022/01/22 02:50:45;;;;;;;3.92;2.08;;;;;;;;;;5032740;28;20044;-70
2022/01/22 02:53:12;;;;;;;3.47;1.85;;;;;;;;;;5040149;28;20021;-69
2022/01/22 02:55:39;;;;;;;2.80;1.73;;;;;;;;;;5033164;28;20044;-70
2022/01/22 02:58:06;;;;;;;3.55;1.83;;;;;;;;;;5032737;28;20064;-70
2022/01/22 03:00:33;;;;;;;4.07;1.63;;;;;;;;;;5032923;28;20037;-69
2022/01/22 03:02:59;;;;;;;2.47;1.23;;;;;;;;;;5032792;28;20040;-69
2022/01/22 03:05:25;;;;;;;3.90;1.83;;;;;;;;;;5032640;28;20025;-69
2022/01/22 03:07:54;;;;;;;3.30;1.50;;;;;;;;;;5031536;28;20030;-69
2022/01/22 03:10:23;;;;;;;3.05;1.52;;;;;;;;;;5032520;28;20056;-70
2022/01/22 03:13:06;;;;;;;2.60;1.40;;;;;;;;;;5032747;28;20029;-70
2022/01/22 03:19:09;;;;;;;2.28;1.40;;;;;;;;;;5032653;28;20108;-70
2022/01/22 03:21:12;;;;;;;2.03;1.35;;;;;;;;;;5035461;28;20029;-70
2022/01/22 03:29:18;;;;;;;3.28;1.42;;;;;;;;;;5051168;28;20044;-69
2022/01/22 03:31:45;;;;;;;2.72;1.50;;;;;;;;;;5051826;28;20484;-69
2022/01/22 03:34:11;;;;;;;3.00;1.50;;;;;;;;;;5052322;28;20024;-69
2022/01/22 03:36:37;;;;;;;3.42;1.65;;;;;;;;;;5052467;28;20422;-70
2022/01/22 03:39:05;;;;;;;2.83;1.70;;;;;;;;;;5050975;28;20147;-70
2022/01/22 03:41:31;;;;;;;2.30;1.40;;;;;;;;;;5044823;28;20033;-69
2022/01/22 03:43:57;;;;;;;3.13;1.70;;;;;;;;;;5032662;28;20104;-69
2022/01/22 03:46:23;;;;;;;2.45;1.40;;;;;;;;;;5032227;28;20026;-70
2022/01/22 03:48:50;;;;;;;3.80;1.63;;;;;;;;;;5032317;28;20036;-70
2022/01/22 03:51:16;;;;;;;2.70;1.65;;;;;;;;;;5032243;28;20485;-70
2022/01/22 03:53:43;;;;;;;3.67;1.83;;;;;;;;;;5047453;28;20017;-70
2022/01/22 03:56:10;;;;;;;2.17;1.20;;;;;;;;;;5051924;28;20025;-70
2022/01/22 03:58:41;;;;;;;2.92;1.70;;;;;;;;;;5052935;28;20045;-70
2022/01/22 04:09:05;;;;;;;2.08;1.30;;;;;;;;;;5056124;28;20120;-70
2022/01/22 04:11:35;;;;;;;2.58;1.40;;;;;;;;;;5053929;28;20021;-69
2022/01/22 04:14:03;;;;;;;2.25;1.40;;;;;;;;;;5055959;28;20476;-69
2022/01/22 04:16:30;;;;;;;1.95;1.10;;;;;;;;;;5055985;28;20045;-69
2022/01/22 04:27:13;;;;;;;3.25;1.35;;;;;;;;;;5052872;28;20033;-69
2022/01/22 04:29:40;;;;;;;1.55;1.05;;;;;;;;;;5034336;28;20575;-69
2022/01/22 04:32:07;;;;;;;2.63;1.13;;;;;;;;;;5035248;28;20030;-69
2022/01/22 04:34:34;;;;;;;2.35;1.33;;;;;;;;;;5035808;28;20026;-69
2022/01/22 04:37:00;;;;;;;1.85;1.20;;;;;;;;;;5034230;28;20092;-69
2022/01/22 04:39:27;;;;;;;1.75;1.00;;;;;;;;;;5035497;28;20041;-69
2022/01/22 04:41:55;;;;;;;1.85;1.17;;;;;;;;;;5044629;28;20025;-70
2022/01/22 04:44:25;;;;;;;2.88;1.15;;;;;;;;;;5055483;28;20107;-70
2022/01/22 04:54:59;;;;;;;2.08;1.20;;;;;;;;;;5035321;28;20416;-70
2022/01/22 04:57:26;;;;;;;1.77;1.20;;;;;;;;;;5033644;28;20065;-70
2022/01/22 04:59:52;;;;;;;3.05;1.10;;;;;;;;;;5033956;28;20038;-70
2022/01/22 05:02:18;;;;;;;1.40;0.82;;;;;;;;;;5034576;28;20032;-70
2022/01/22 05:04:44;;;;;;;2.40;1.33;;;;;;;;;;5035502;28;20401;-70
2022/01/22 05:07:11;;;;;;;2.10;1.20;;;;;;;;;;5033641;28;20026;-70
2022/01/22 05:09:37;;;;;;;2.10;0.98;;;;;;;;;;5035336;28;20072;-70
2022/01/22 05:12:04;;;;;;;1.33;0.95;;;;;;;;;;5034312;28;20056;-69
2022/01/22 05:14:31;;;;;;;2.05;1.02;;;;;;;;;;5035362;28;20026;-69
2022/01/22 05:16:59;;;;;;;2.65;1.10;;;;;;;;;;5033974;28;20064;-69
2022/01/22 05:19:33;;;;;;;1.25;0.90;;;;;;;;;;5034917;28;20033;-69
2022/01/22 05:22:09;;;;;;;1.85;1.00;;;;;;;;;;5034328;28;20026;-69
2022/01/22 05:24:39;;;;;;;2.60;0.95;;;;;;;;;;5035159;28;20022;-69
2022/01/22 05:37:27;;;;;;;4.03;1.35;;;;;;;;;;5054325;28;20055;-70
2022/01/22 05:39:53;;;;;;;1.80;0.80;;;;;;;;;;5053150;28;20025;-70
2022/01/22 05:42:20;;;;;;;1.85;1.20;;;;;;;;;;5040437;28;20048;-70
2022/01/22 05:44:46;;;;;;;1.80;1.00;;;;;;;;;;5034545;28;20527;-70
2022/01/22 05:47:19;;;;;;;1.50;0.90;;;;;;;;;;5034246;28;20034;-70
2022/01/22 05:49:45;;;;;;;1.75;0.98;;;;;;;;;;5034550;28;20097;-70
2022/01/22 05:52:13;;;;;;;2.42;1.00;;;;;;;;;;5036544;28;20029;-70
2022/01/22 05:59:59;;;;;;;2.47;1.08;;;;;;;;;;5054396;28;20079;-70
2022/01/22 06:02:25;;;;;;;2.65;1.02;;;;;;;;;;5053269;28;20025;-70
2022/01/22 06:04:51;;;;;;;2.90;1.33;;;;;;;;;;5052551;28;20060;-71
2022/01/22 06:07:17;;;;;;;2.20;0.90;;;;;;;;;;5053620;28;20053;-70
2022/01/22 06:09:54;;;;;;;2.30;1.10;;;;;;;;;;5053888;28;20029;-70
2022/01/22 06:12:40;;;;;;;2.45;1.33;;;;;;;;;;5051845;28;20508;-69
2022/01/22 06:15:06;;;;;;;2.72;1.08;;;;;;;;;;5053767;28;20488;-69
2022/01/22 06:17:32;;;;;;;1.98;0.85;;;;;;;;;;5053449;28;20057;-69
2022/01/22 06:19:58;;;;;;;3.22;0.90;;;;;;;;;;5051844;28;20033;-69
2022/01/22 06:22:24;;;;;;;2.92;1.30;;;;;;;;;;5052585;28;20052;-69
2022/01/22 06:24:50;;;;;;;2.08;0.98;;;;;;;;;;5053509;28;20021;-70
2022/01/22 06:27:16;;;;;;;1.40;0.80;;;;;;;;;;5049595;28;20048;-70
2022/01/22 06:29:42;;;;;;;2.25;1.15;;;;;;;;;;5033268;28;20030;-70
2022/01/22 06:32:08;;;;;;;2.75;0.93;;;;;;;;;;5032803;28;20036;-70
2022/01/22 06:34:34;;;;;;;2.95;0.80;;;;;;;;;;5032336;28;20026;-70
2022/01/22 06:37:00;;;;;;;3.22;1.20;;;;;;;;;;5033139;28;20480;-70
2022/01/22 06:39:27;;;;;;;2.55;1.00;;;;;;;;;;5033288;28;20017;-69
2022/01/22 06:41:53;;;;;;;3.97;1.27;;;;;;;;;;5041960;28;20036;-70
2022/01/22 06:44:29;;;;;;;1.80;1.08;;;;;;;;;;5051859;28;20029;-70
2022/01/22 06:46:56;;;;;;;4.07;1.30;;;;;;;;;;5052975;28;20033;-70
2022/01/22 06:49:22;;;;;;;3.38;1.00;;;;;;;;;;5053267;28;20028;-69
2022/01/22 06:51:50;;;;;;;2.38;0.95;;;;;;;;;;5052836;28;20048;-70
2022/01/22 06:54:17;;;;;;;2.75;1.15;;;;;;;;;;5033036;28;20369;-70
2022/01/22 06:56:43;;;;;;;2.33;1.00;;;;;;;;;;5032924;28;20036;-70
2022/01/22 06:59:11;;;;;;;1.23;0.80;;;;;;;;;;5032876;28;20041;-70
2022/01/22 07:01:37;;;;;;;3.20;1.10;;;;;;;;;;5032110;28;20057;-70
2022/01/22 07:04:03;;;;;;;1.88;1.00;;;;;;;;;;5032578;28;20017;-70
2022/01/22 07:06:29;;;;;;;1.92;1.10;;;;;;;;;;5031512;28;20029;-70
2022/01/22 07:08:55;;;;;;;3.35;1.10;;;;;;;;;;5032350;28;20021;-70
2022/01/22 07:11:22;;;;;;;1.75;1.00;;;;;;;;;;5032066;28;20036;-69
2022/01/22 07:13:48;;;;;;;2.00;0.98;;;;;;;;;;5032533;28;20028;-69
2022/01/22 07:16:14;;;;;;;1.95;0.95;;;;;;;;;;5031308;28;20105;-69
2022/01/22 07:18:41;;;;;;;2.45;1.10;;;;;;;;;;5032317;28;20026;-69
2022/01/22 07:21:16;;;;;;;1.55;0.90;;;;;;;;;;5032439;28;20025;-69
2022/01/22 07:26:15;;;;;;;2.15;1.20;;;;;;;;;;5032440;28;20504;-69
2022/01/22 07:28:41;;;;;;;2.63;1.05;;;;;;;;;;5047432;28;20416;-70
2022/01/22 07:31:07;;;;;;;3.15;1.33;;;;;;;;;;5052573;28;20520;-70
2022/01/22 07:33:36;;;;;;;2.45;1.10;;;;;;;;;;5051785;28;20070;-70
2022/01/22 07:36:03;;;;;;;1.42;0.80;;;;;;;;;;5052779;28;20536;-70
2022/01/22 07:38:29;;;;;;;3.03;1.23;;;;;;;;;;5052178;28;20021;-70
2022/01/22 07:40:55;;;;;;;4.45;1.20;;;;;;;;;;5049033;28;20569;-70
2022/01/22 07:43:21;;;;;;;2.45;1.00;;;;;;;;;;5032127;28;20069;-70
2022/01/22 07:45:47;;;;;;;2.10;1.10;;;;;;;;;;5032474;28;20036;-70
2022/01/22 07:48:14;;;;;;;1.83;0.93;;;;;;;;;;5032487;28;20441;-70
2022/01/22 07:50:40;;;;;;;2.33;1.33;;;;;;;;;;5032273;28;20118;-70
2022/01/22 07:53:06;;;;;;;2.17;1.40;;;;;;;;;;5042775;28;20488;-70
2022/01/22 07:55:32;;;;;;;1.80;1.30;;;;;;;;;;5052112;28;20029;-70
2022/01/22 07:57:58;;;;;;;3.20;1.13;;;;;;;;;;5051605;28;20033;-69
2022/01/22 08:00:24;;;;;;;2.35;1.13;;;;;;;;;;5052290;28;20029;-69
2022/01/22 08:02:50;;;;;;;3.10;1.10;;;;;;;;;;5052028;28;20029;-70
2022/01/22 08:05:16;;;;;;;2.60;1.10;;;;;;;;;;5051939;28;20037;-70
2022/01/22 08:07:44;;;;;;;3.72;1.20;;;;;;;;;;5051892;28;20032;-70
2022/01/22 08:10:12;;;;;;;2.28;1.27;;;;;;;;;;5051770;28;20029;-69
2022/01/22 08:12:39;;;;;;;3.47;1.40;;;;;;;;;;5052153;28;20373;-69
2022/01/22 08:15:06;;;;;;;1.95;1.10;;;;;;;;;;5051667;28;20029;-69
2022/01/22 08:17:32;;;;;;;1.90;1.13;;;;;;;;;;5051977;28;20048;-70
2022/01/22 08:19:58;;;;;;;1.77;1.10;;;;;;;;;;5050468;28;20597;-70
2022/01/22 08:22:24;;;;;;;2.33;1.52;;;;;;;;;;5051589;28;20040;-69
2022/01/22 08:24:53;;;;;;;3.13;1.70;;;;;;;;;;5051887;28;20033;-70
2022/01/22 08:27:35;;;;;;;3.67;1.65;;;;;;;;;;5046749;28;20018;-70
2022/01/22 08:30:04;;;;;;;2.60;1.30;;;;;;;;;;5030565;28;20040;-70
2022/01/22 08:32:56;;;;;;;3.28;1.20;;;;;;;;;;5031408;28;20107;-70
2022/01/22 08:38:03;;;;;;;2.22;1.45;;;;;;;;;;5032165;28;20507;-70
2022/01/22 08:40:29;;;;;;;2.20;1.40;;;;;;;;;;5030588;28;20036;-70
2022/01/22 08:42:55;;;;;;;2.80;1.30;;;;;;;;;;5049905;28;20115;-71
2022/01/22 08:45:21;;;;;;;2.30;1.30;;;;;;;;;;5055116;28;20025;-69
2022/01/22 08:47:48;;;;;;;3.20;1.58;;;;;;;;;;5055602;28;20021;-70
2022/01/22 08:50:14;;;;;;;3.15;1.40;;;;;;;;;;5055731;28;20509;-69
2022/01/22 08:52:40;;;;;;;2.47;1.30;;;;;;;;;;5048322;28;20044;-69
2022/01/22 08:55:07;;;;;;;2.30;1.20;;;;;;;;;;5035514;28;20547;-69
2022/01/22 08:57:33;;;;;;;1.42;1.20;;;;;;;;;;5035546;28;20038;-70
2022/01/22 09:00:00;;;;;;;2.78;1.25;;;;;;;;;;5035266;28;20408;-70
2022/01/22 09:02:27;;;;;;;2.78;1.50;;;;;;;;;;5034670;28;20074;-70
2022/01/22 09:04:55;;;;;;;2.97;1.40;;;;;;;;;;5034957;28;20132;-70
2022/01/22 09:07:21;;;;;;;2.65;1.50;;;;;;;;;;5034903;28;20079;-70
2022/01/22 09:09:48;;;;;;;2.92;1.60;;;;;;;;;;5035010;28;20029;-70
2022/01/22 09:12:15;;;;;;;3.72;1.60;;;;;;;;;;5035285;28;20029;-70
2022/01/22 09:14:41;;;;;;;1.92;1.38;;;;;;;;;;5035222;28;20032;-69
2022/01/22 09:17:08;;;;;;;3.65;1.35;;;;;;;;;;5033561;28;20440;-69
2022/01/22 09:19:35;;;;;;;1.80;1.38;;;;;;;;;;5034901;28;20033;-69
2022/01/22 09:22:05;;;;;;;3.42;1.38;;;;;;;;;;5034669;28;20472;-70
2022/01/22 09:24:32;;;;;;;2.50;1.50;;;;;;;;;;5034575;28;20100;-70
2022/01/22 09:26:59;;;;;;;2.72;1.50;;;;;;;;;;5034886;28;20029;-69
2022/01/22 09:29:26;;;;;;;3.03;1.50;;;;;;;;;;5054567;28;20025;-73
2022/01/22 09:31:52;;;;;;;2.65;1.40;;;;;;;;;;5053181;28;20028;-73
2022/01/22 09:34:18;;;;;;;3.92;1.65;;;;;;;;;;5054646;28;20021;-73
2022/01/22 09:36:44;;;;;;;2.80;1.67;;;;;;;;;;5055454;28;20048;-73
2022/01/22 09:39:10;;;;;;;2.85;1.73;;;;;;;;;;5055104;28;20025;-73
2022/01/22 09:41:36;;;;;;;4.35;1.70;;;;;;;;;;5046795;28;20104;-74
2022/01/22 09:44:03;;;;;;;2.88;1.52;;;;;;;;;;5034803;28;20025;-73
2022/01/22 09:46:29;;;;;;;3.72;1.95;;;;;;;;;;5034672;28;20116;-73
2022/01/22 09:48:56;;;;;;;2.15;1.60;;;;;;;;;;5034934;28;20100;-73
2022/01/22 09:51:23;;;;;;;2.65;1.58;;;;;;;;;;5034347;28;20408;-71
2022/01/22 09:53:49;;;;;;;4.50;1.55;;;;;;;;;;5050997;28;20104;-71
2022/01/22 09:56:19;;;;;;;4.03;1.83;;;;;;;;;;5053437;28;20291;-71
2022/01/22 09:58:45;;;;;;;3.20;1.77;;;;;;;;;;5054327;28;20110;-70
2022/01/22 10:01:19;;;;;;;2.47;1.60;;;;;;;;;;5054262;28;20037;-71
2022/01/22 10:03:45;;;;;;;3.20;1.85;;;;;;;;;;5053351;28;20025;-69
2022/01/22 10:06:15;;;;;;;2.53;1.50;;;;;;;;;;5054120;28;20033;-70
2022/01/22 10:08:41;;;;;;;2.33;1.45;;;;;;;;;;5054472;28;20032;-69
2022/01/22 10:11:15;;;;;;;2.78;1.77;;;;;;;;;;5054098;28;20132;-71
2022/01/22 10:13:41;;;;;;;4.25;1.90;;;;;;;;;;5053659;28;20522;-71
2022/01/22 10:16:11;;;;;;;5.00;2.00;;;;;;;;;;5053703;28;20140;-71
2022/01/22 10:18:37;;;;;;;3.90;1.70;;;;;;;;;;5053558;28;20276;-71
2022/01/22 10:21:07;;;;;;;4.28;2.17;;;;;;;;;;5053534;28;20392;-71
2022/01/22 10:23:39;;;;;;;3.33;1.67;;;;;;;;;;5053778;28;20097;-71
2022/01/22 10:26:07;;;;;;;4.78;1.60;;;;;;;;;;5053651;28;20514;-71
2022/01/22 10:28:45;;;;;;;3.00;1.83;;;;;;;;;;5039883;28;20029;-70
2022/01/22 10:31:20;;;;;;;2.95;1.60;;;;;;;;;;5033888;28;20080;-71
2022/01/22 10:34:03;;;;;;;2.65;1.52;;;;;;;;;;5033871;28;20049;-71
2022/01/22 10:36:29;;;;;;;4.10;2.10;;;;;;;;;;5033551;28;20100;-70
2022/01/22 10:38:55;;;;;;;3.53;1.95;;;;;;;;;;5034242;28;20100;-70
2022/01/22 10:41:40;;;;;;;6.05;2.17;;;;;;;;;;5038577;28;20476;-70
2022/01/22 10:44:08;;;;;;;3.25;1.65;;;;;;;;;;5054012;28;20033;-70
2022/01/22 10:46:45;;;;;;;2.75;1.60;;;;;;;;;;5053155;28;20029;-70
2022/01/22 10:49:16;;;;;;;4.05;1.92;;;;;;;;;;5053642;28;20377;-70
2022/01/22 10:51:45;;;;;;;4.00;1.70;;;;;;;;;;5052570;28;20045;-70
2022/01/22 10:54:12;;;;;;;3.70;2.08;;;;;;;;;;5033498;28;20397;-70
2022/01/22 10:56:40;;;;;;;2.80;1.75;;;;;;;;;;5033250;28;20507;-70
2022/01/22 10:59:10;;;;;;;4.43;1.58;;;;;;;;;;5032684;28;20049;-69
2022/01/22 11:01:54;;;;;;;3.42;1.83;;;;;;;;;;5031725;28;20026;-69
2022/01/22 11:04:27;;;;;;;4.07;1.60;;;;;;;;;;5033404;28;20049;-69
2022/01/22 11:06:57;;;;;;;1.77;1.48;;;;;;;;;;5032617;28;20064;-70
2022/01/22 11:09:24;;;;;;;2.15;1.60;;;;;;;;;;5031784;28;20033;-70
2022/01/22 11:11:51;;;;;;;2.78;1.73;;;;;;;;;;5032388;28;20022;-70
2022/01/22 11:14:18;;;;;;;2.70;1.75;;;;;;;;;;5031640;28;20087;-70
2022/01/22 11:16:45;;;;;;;2.22;1.80;;;;;;;;;;5031539;28;20112;-70
2022/01/22 11:19:14;;;;;;;4.30;1.65;;;;;;;;;;5032574;28;20071;-69
2022/01/22 11:21:44;;;;;;;3.15;1.90;;;;;;;;;;5032139;28;20032;-69
2022/01/22 11:24:12;;;;;;;3.05;1.80;;;;;;;;;;5032821;28;20017;-69
2022/01/22 11:26:38;;;;;;;3.08;1.60;;;;;;;;;;5033048;28;20030;-69
2022/01/22 11:29:05;;;;;;;4.10;1.90;;;;;;;;;;5049757;28;20063;-69
2022/01/22 11:31:32;;;;;;;2.88;1.52;;;;;;;;;;5052181;28;20400;-69
2022/01/22 11:34:00;;;;;;;3.25;1.95;;;;;;;;;;5050872;28;20017;-69
2022/01/22 11:36:31;;;;;;;3.25;2.00;;;;;;;;;;5052205;28;20021;-69
2022/01/22 11:38:59;;;;;;;3.22;1.73;;;;;;;;;;5052958;28;20017;-70
2022/01/22 11:41:25;;;;;;;3.47;2.13;;;;;;;;;;5045782;28;20079;-69
2022/01/22 11:44:12;;;;;;;3.38;1.92;;;;;;;;;;5032706;28;20029;-69
2022/01/22 11:46:41;;;;;;;3.60;1.80;;;;;;;;;;5032654;28;20021;-70
2022/01/22 11:49:21;;;;;;;2.33;1.70;;;;;;;;;;5031889;28;20057;-69
2022/01/22 11:51:49;;;;;;;4.90;2.00;;;;;;;;;;5032030;28;20106;-70
2022/01/22 11:54:16;;;;;;;2.63;1.65;;;;;;;;;;5032436;28;20036;-69
2022/01/22 11:56:53;;;;;;;3.33;1.90;;;;;;;;;;5032372;28;20021;-70
2022/01/22 11:59:20;;;;;;;2.60;1.85;;;;;;;;;;5031252;28;20042;-69
2022/01/22 12:01:53;;;;;;;2.97;1.88;;;;;;;;;;5032213;28;20056;-69
2022/01/22 12:04:26;;;;;;;2.93;1.73;;;;;;;;;;5031570;28;20040;-69
2022/01/22 12:07:01;;;;;;;4.40;2.17;;;;;;;;;;5030706;28;20026;-69
2022/01/22 12:09:31;;;;;;;2.75;1.70;;;;;;;;;;5030877;28;20124;-69
2022/01/22 12:14:48;;;;;;;3.90;2.10;;;;;;;;;;5032577;28;20032;-72
2022/01/22 12:17:24;;;;;;;3.75;2.25;;;;;;;;;;5032181;28;20022;-72
2022/01/22 12:22:32;;;;;;;6.80;2.33;;;;;;;;;;5035600;28;20121;-72
2022/01/22 12:24:59;;;;;;;7.30;1.80;;;;;;;;;;5036266;28;20071;-72
2022/01/22 12:27:41;;;;;;;3.90;2.08;;;;;;;;;;5039566;28;20078;-72
2022/01/22 12:30:08;;;;;;;4.20;2.20;;;;;;;;;;5056124;28;20032;-72
2022/01/22 12:32:47;;;;;;;3.63;2.35;;;;;;;;;;5055786;28;20090;-72
2022/01/22 12:35:16;;;;;;;4.18;2.30;;;;;;;;;;5056172;28;20021;-72
2022/01/22 12:37:46;;;;;;;3.88;2.10;;;;;;;;;;5056127;28;20522;-73
2022/01/22 12:40:13;;;;;;;4.07;2.28;;;;;;;;;;5055955;28;20029;-72
2022/01/22 12:43:02;;;;;;;3.40;2.08;;;;;;;;;;5039402;28;20025;-72
2022/01/22 12:45:28;;;;;;;3.25;2.13;;;;;;;;;;5035438;28;20108;-72
2022/01/22 12:47:55;;;;;;;3.00;1.95;;;;;;;;;;5035100;28;20051;-72
2022/01/22 12:50:25;;;;;;;3.35;1.88;;;;;;;;;;5035850;28;20380;-72
2022/01/22 12:52:52;;;;;;;3.08;1.83;;;;;;;;;;5043788;28;20021;-73
2022/01/22 12:55:20;;;;;;;2.60;1.90;;;;;;;;;;5055274;28;20013;-73
2022/01/22 12:57:46;;;;;;;3.00;2.05;;;;;;;;;;5055021;28;20595;-72
2022/01/22 13:00:15;;;;;;;3.75;1.83;;;;;;;;;;5055486;28;20035;-72
2022/01/22 13:02:41;;;;;;;4.93;1.98;;;;;;;;;;5054848;28;20056;-73
2022/01/22 13:05:08;;;;;;;3.30;2.15;;;;;;;;;;5055425;28;20051;-73
2022/01/22 13:07:38;;;;;;;3.28;1.77;;;;;;;;;;5054684;28;20029;-72
2022/01/22 13:10:06;;;;;;;2.80;1.83;;;;;;;;;;5055200;28;20059;-72
2022/01/22 13:12:32;;;;;;;3.90;2.00;;;;;;;;;;5055242;28;20029;-73
2022/01/22 13:14:58;;;;;;;3.03;1.70;;;;;;;;;;5055268;28;20025;-73
2022/01/22 13:17:31;;;;;;;2.97;1.83;;;;;;;;;;5054930;28;20025;-73
2022/01/22 13:19:58;;;;;;;3.58;1.90;;;;;;;;;;5054914;28;20025;-73
2022/01/22 13:22:31;;;;;;;2.50;1.60;;;;;;;;;;5054556;28;20025;-72
2022/01/22 13:24:57;;;;;;;;;;;;;;;;;;5054951;28;20432;-72
2022/01/22 13:27:23;;;;;;;3.45;1.70;;;;;;;;;;5050009;28;19912;-72
2022/01/22 13:29:54;;;;;;;2.55;1.80;;;;;;;;;;5034495;28;20405;-72
2022/01/22 13:38:22;;;;;;;2.40;1.48;;;;;;;;;;5034994;28;20025;-73
2022/01/22 13:49:27;;;;;;;2.67;1.60;;;;;;;;;;5054391;28;20067;-73
2022/01/22 13:51:54;;;;;;;3.00;1.50;;;;;;;;;;5053430;28;20570;-73
2022/01/22 13:54:26;;;;;;;2.65;1.77;;;;;;;;;;5034190;28;20018;-73
2022/01/22 13:56:56;;;;;;;3.50;1.55;;;;;;;;;;5032944;28;20021;-73
2022/01/22 13:59:26;;;;;;;3.03;1.50;;;;;;;;;;5032761;28;20045;-73
2022/01/22 14:02:11;;;;;;;2.72;1.70;;;;;;;;;;5034002;28;20063;-73
2022/01/22 14:04:40;;;;;;;2.05;1.50;;;;;;;;;;5034003;28;20447;-73
2022/01/22 14:07:16;;;;;;;3.78;2.08;;;;;;;;;;5034109;28;20021;-73
2022/01/22 14:09:52;;;;;;;3.17;1.30;;;;;;;;;;5033876;28;20030;-73
2022/01/22 14:12:18;;;;;;;2.08;1.60;;;;;;;;;;5033517;28;20048;-73
2022/01/22 14:15:01;;;;;;;2.10;1.60;;;;;;;;;;5034359;28;20453;-73
2022/01/22 14:17:32;;;;;;;2.43;1.50;;;;;;;;;;5033946;28;20022;-72
2022/01/22 14:20:03;;;;;;;2.22;1.40;;;;;;;;;;5033441;28;20060;-72
2022/01/22 14:22:29;;;;;;;3.72;1.92;;;;;;;;;;5033385;28;20029;-72
2022/01/22 14:25:14;;;;;;;2.28;1.30;;;;;;;;;;5033466;28;20076;-73
2022/01/22 14:27:40;;;;;;;2.55;1.50;;;;;;;;;;5040437;28;20025;-73
2022/01/22 14:30:06;;;;;;;3.17;1.60;;;;;;;;;;5053577;28;20440;-73
2022/01/22 14:32:35;;;;;;;3.15;1.60;;;;;;;;;;5053742;28;20095;-72
2022/01/22 14:35:02;;;;;;;2.45;1.60;;;;;;;;;;5053270;28;20043;-72
2022/01/22 14:37:31;;;;;;;2.08;1.42;;;;;;;;;;5053592;28;20028;-73
2022/01/22 14:45:54;;;;;;;2.17;1.50;;;;;;;;;;5033406;28;20087;-72
2022/01/22 14:48:20;;;;;;;2.50;1.50;;;;;;;;;;5033192;28;20057;-72
2022/01/22 14:50:46;;;;;;;2.13;1.70;;;;;;;;;;5032840;28;20025;-73
2022/01/22 14:53:13;;;;;;;2.85;1.58;;;;;;;;;;5043014;28;20036;-72
2022/01/22 14:55:48;;;;;;;1.88;1.30;;;;;;;;;;5052914;28;20070;-72
2022/01/22 14:58:14;;;;;;;3.40;1.23;;;;;;;;;;5051526;28;20420;-73
2022/01/22 15:00:40;;;;;;;2.17;1.33;;;;;;;;;;5051582;28;20028;-73
2022/01/22 15:03:06;;;;;;;1.83;1.40;;;;;;;;;;5052311;28;20033;-73
2022/01/22 15:05:32;;;;;;;2.10;1.40;;;;;;;;;;5051581;28;20031;-73
2022/01/22 15:07:59;;;;;;;2.17;1.30;;;;;;;;;;5053025;28;20036;-72
2022/01/22 15:10:25;;;;;;;2.65;1.30;;;;;;;;;;5052497;28;20108;-72
2022/01/22 15:12:52;;;;;;;3.92;1.45;;;;;;;;;;5053060;28;20452;-72
2022/01/22 15:15:20;;;;;;;2.67;1.42;;;;;;;;;;5052527;28;20063;-72
2022/01/22 15:20:19;;;;;;;2.83;1.50;;;;;;;;;;5052551;28;20029;-72
2022/01/22 15:22:45;;;;;;;2.20;1.40;;;;;;;;;;5052823;28;20378;-73
2022/01/22 15:25:12;;;;;;;1.50;1.15;;;;;;;;;;5052641;28;20115;-73
2022/01/22 15:27:38;;;;;;;1.88;1.17;;;;;;;;;;5046566;28;20033;-72
2022/01/22 15:30:12;;;;;;;2.63;1.35;;;;;;;;;;5032450;28;20025;-72
2022/01/22 15:35:08;;;;;;;2.85;1.45;;;;;;;;;;5032228;28;20505;-72
2022/01/22 15:37:36;;;;;;;2.33;1.42;;;;;;;;;;5033061;28;20105;-72
2022/01/22 15:40:04;;;;;;;3.00;1.70;;;;;;;;;;5032392;28;20108;-72
2022/01/22 15:42:30;;;;;;;2.90;1.20;;;;;;;;;;5046593;28;20111;-72
2022/01/22 15:44:56;;;;;;;2.70;1.40;;;;;;;;;;5052021;28;20143;-70
2022/01/22 15:47:22;;;;;;;2.78;1.48;;;;;;;;;;5052587;28;20033;-70
2022/01/22 15:49:55;;;;;;;2.53;1.70;;;;;;;;;;5052119;28;20024;-70
2022/01/22 15:52:21;;;;;;;3.47;1.73;;;;;;;;;;5051032;28;20025;-69
2022/01/22 15:54:47;;;;;;;2.10;1.30;;;;;;;;;;5055009;28;20079;-70
2022/01/22 15:57:15;;;;;;;2.30;1.40;;;;;;;;;;5055906;28;20018;-69
2022/01/22 15:59:41;;;;;;;1.67;1.23;;;;;;;;;;5056550;28;20056;-69
2022/01/22 16:02:07;;;;;;;2.05;1.42;;;;;;;;;;5055863;28;20484;-69
2022/01/22 16:04:34;;;;;;;1.63;1.10;;;;;;;;;;5056198;28;20111;-69
2022/01/22 16:07:07;;;;;;;1.60;1.10;;;;;;;;;;5056011;28;20495;-70
2022/01/22 16:09:33;;;;;;;2.63;1.40;;;;;;;;;;5056092;28;20082;-69
2022/01/22 16:12:00;;;;;;;2.25;1.35;;;;;;;;;;5056199;28;20466;-69
2022/01/22 16:14:27;;;;;;;2.88;1.40;;;;;;;;;;5056583;28;20499;-69
2022/01/22 16:16:55;;;;;;;1.80;1.10;;;;;;;;;;5056594;28;20025;-70
2022/01/22 16:19:22;;;;;;;2.25;1.70;;;;;;;;;;5056187;28;20116;-70
2022/01/22 16:21:48;;;;;;;2.10;1.42;;;;;;;;;;5055205;28;20021;-69
2022/01/22 16:24:15;;;;;;;1.88;1.40;;;;;;;;;;5055833;28;20029;-70
2022/01/22 16:26:41;;;;;;;2.20;1.55;;;;;;;;;;5056279;28;20086;-70
2022/01/22 16:29:08;;;;;;;2.20;1.48;;;;;;;;;;5036844;28;20104;-69
2022/01/22 16:31:35;;;;;;;3.30;1.73;;;;;;;;;;5035014;28;20094;-70
2022/01/22 16:34:02;;;;;;;2.88;1.90;;;;;;;;;;5035965;28;20021;-69
2022/01/22 16:36:29;;;;;;;3.17;2.03;;;;;;;;;;5035815;28;20503;-69
2022/01/22 16:38:57;;;;;;;3.10;1.85;;;;;;;;;;5035849;28;20030;-70
2022/01/22 16:41:23;;;;;;;2.85;1.90;;;;;;;;;;5040110;28;20553;-69
2022/01/22 16:43:51;;;;;;;3.17;1.65;;;;;;;;;;5054227;28;20031;-70
2022/01/22 16:52:02;;;;;;;2.33;1.65;;;;;;;;;;5054957;28;20048;-70
2022/01/22 16:57:04;;;;;;;2.85;1.90;;;;;;;;;;5035313;28;20107;-69